Time;durP1;ratioP1;P1;durP2;ratioP2;P2;SDS_P1;SDS_P2;PMS_P1;PMS_P2;Temp;Humidity;BMP_temperature;BMP_pressure;BME280_temperature;BME280_humidity;BME280_pressure;Samples;Min_cycle;Max_cycle;Signal;HPM_P1;HPM_P2
2022/03/11 00:02:12;;;;;;;6.85;3.33;;;;;;;;;;5053895;28;20021;-61
2022/03/11 00:04:38;;;;;;;6.40;3.58;;;;;;;;;;5054268;28;20028;-62
2022/03/11 00:07:04;;;;;;;6.07;3.55;;;;;;;;;;5054037;28;20035;-62
2022/03/11 00:09:30;;;;;;;10.88;3.60;;;;;;;;;;5054000;28;20020;-62
2022/03/11 00:11:56;;;;;;;7.53;3.85;;;;;;;;;;5053935;28;20476;-63
2022/03/11 00:14:22;;;;;;;6.68;3.45;;;;;;;;;;5054187;28;20021;-62
2022/03/11 00:16:48;;;;;;;7.10;3.45;;;;;;;;;;5054385;28;20076;-62
2022/03/11 00:19:14;;;;;;;5.85;3.30;;;;;;;;;;5053983;28;20035;-61
2022/03/11 00:21:40;;;;;;;7.28;3.58;;;;;;;;;;5053739;28;20027;-62
2022/03/11 00:24:06;;;;;;;6.20;3.60;;;;;;;;;;5053639;28;20104;-63
2022/03/11 00:26:34;;;;;;;9.55;3.55;;;;;;;;;;5053645;28;20104;-62
2022/03/11 00:29:00;;;;;;;5.25;3.03;;;;;;;;;;5053974;28;20023;-62
2022/03/11 00:31:28;;;;;;;6.80;3.40;;;;;;;;;;5068777;28;20061;-62
2022/03/11 00:33:54;;;;;;;6.28;3.60;;;;;;;;;;5053568;28;20021;-62
2022/03/11 00:36:21;;;;;;;6.65;3.63;;;;;;;;;;5053454;28;20025;-62
2022/03/11 00:38:47;;;;;;;6.38;3.38;;;;;;;;;;5053702;28;20013;-62
2022/03/11 00:41:13;;;;;;;6.63;3.47;;;;;;;;;;5068752;28;20021;-62
2022/03/11 00:43:39;;;;;;;9.18;3.40;;;;;;;;;;5053402;28;20021;-62
2022/03/11 00:46:05;;;;;;;7.70;3.53;;;;;;;;;;5053514;28;20021;-62
2022/03/11 00:48:31;;;;;;;5.88;3.45;;;;;;;;;;5053490;28;20024;-62
2022/03/11 00:50:58;;;;;;;6.28;3.55;;;;;;;;;;5052702;28;20033;-62
2022/03/11 00:53:25;;;;;;;6.20;3.17;;;;;;;;;;5052904;28;20021;-62
2022/03/11 00:55:51;;;;;;;7.07;3.28;;;;;;;;;;5052694;28;20039;-62
2022/03/11 00:58:17;;;;;;;7.28;3.83;;;;;;;;;;5052786;28;20065;-62
2022/03/11 01:00:43;;;;;;;5.78;3.05;;;;;;;;;;5052930;28;20027;-62
2022/03/11 01:03:09;;;;;;;7.63;3.35;;;;;;;;;;5052976;28;20047;-62
2022/03/11 01:05:35;;;;;;;6.75;3.53;;;;;;;;;;5052817;28;20013;-62
2022/03/11 01:08:02;;;;;;;5.85;3.30;;;;;;;;;;5052450;28;20021;-62
2022/03/11 01:10:29;;;;;;;6.13;3.20;;;;;;;;;;5052844;28;20045;-63
2022/03/11 01:12:55;;;;;;;6.03;3.50;;;;;;;;;;5052522;28;20039;-61
2022/03/11 01:15:21;;;;;;;6.75;3.80;;;;;;;;;;5049799;28;20093;-63
2022/03/11 01:17:47;;;;;;;6.20;3.80;;;;;;;;;;5052636;28;20029;-62
2022/03/11 01:20:14;;;;;;;5.70;3.60;;;;;;;;;;5068042;28;20021;-62
2022/03/11 01:22:40;;;;;;;6.53;3.60;;;;;;;;;;5052808;28;20025;-62
2022/03/11 01:25:07;;;;;;;6.15;3.45;;;;;;;;;;5052525;28;20018;-63
2022/03/11 01:27:33;;;;;;;6.75;3.80;;;;;;;;;;5052476;28;20155;-62
2022/03/11 01:29:59;;;;;;;6.88;3.38;;;;;;;;;;5052630;28;20020;-62
2022/03/11 01:32:25;;;;;;;6.88;3.97;;;;;;;;;;5052489;28;20040;-62
2022/03/11 01:34:51;;;;;;;6.32;3.65;;;;;;;;;;5052464;28;20566;-61
2022/03/11 01:37:18;;;;;;;7.18;3.53;;;;;;;;;;5052524;28;20092;-66
2022/03/11 01:39:44;;;;;;;5.95;3.30;;;;;;;;;;5052384;28;20028;-66
2022/03/11 01:42:11;;;;;;;5.82;3.40;;;;;;;;;;5052249;28;20167;-62
2022/03/11 01:44:37;;;;;;;7.50;3.60;;;;;;;;;;5052226;28;20032;-63
2022/03/11 01:47:03;;;;;;;6.93;3.55;;;;;;;;;;5052277;28;20074;-66
2022/03/11 01:49:29;;;;;;;7.50;3.53;;;;;;;;;;5052308;28;20025;-68
2022/03/11 01:51:55;;;;;;;7.03;3.67;;;;;;;;;;5051916;28;20095;-67
2022/03/11 01:54:21;;;;;;;6.57;3.65;;;;;;;;;;5052001;28;20072;-68
2022/03/11 01:56:47;;;;;;;5.95;3.22;;;;;;;;;;5052168;28;20422;-68
2022/03/11 01:59:14;;;;;;;7.72;3.70;;;;;;;;;;5052125;28;20468;-66
2022/03/11 02:01:40;;;;;;;8.68;3.70;;;;;;;;;;5051313;28;20089;-63
2022/03/11 02:04:06;;;;;;;6.88;3.75;;;;;;;;;;5052136;28;20029;-61
2022/03/11 02:06:32;;;;;;;6.00;3.45;;;;;;;;;;5052261;28;20032;-64
2022/03/11 02:09:01;;;;;;;8.25;3.50;;;;;;;;;;5038867;28;20032;-64
2022/03/11 02:11:27;;;;;;;7.43;3.83;;;;;;;;;;5032047;28;20574;-62
2022/03/11 02:13:57;;;;;;;5.82;3.33;;;;;;;;;;5032015;28;20029;-61
2022/03/11 02:16:25;;;;;;;7.78;3.72;;;;;;;;;;5030664;28;20053;-61
2022/03/11 02:18:51;;;;;;;7.63;4.18;;;;;;;;;;5032238;28;20018;-61
2022/03/11 02:21:18;;;;;;;6.57;3.60;;;;;;;;;;5032234;28;20030;-64
2022/03/11 02:23:45;;;;;;;6.20;3.42;;;;;;;;;;5032074;28;20020;-63
2022/03/11 02:26:11;;;;;;;6.03;3.40;;;;;;;;;;5031861;28;20152;-61
2022/03/11 02:28:37;;;;;;;5.85;2.80;;;;;;;;;;5032005;28;20083;-62
2022/03/11 02:31:03;;;;;;;6.55;3.75;;;;;;;;;;5031886;28;20025;-62
2022/03/11 02:33:30;;;;;;;6.15;3.30;;;;;;;;;;5031841;28;20103;-65
2022/03/11 02:35:56;;;;;;;6.78;3.45;;;;;;;;;;5032128;28;20108;-61
2022/03/11 02:38:22;;;;;;;7.53;3.53;;;;;;;;;;5031894;28;20025;-63
2022/03/11 02:40:48;;;;;;;5.93;3.30;;;;;;;;;;5030355;28;20025;-62
2022/03/11 02:43:14;;;;;;;6.80;3.42;;;;;;;;;;5030872;28;20107;-62
2022/03/11 02:45:40;;;;;;;7.68;3.72;;;;;;;;;;5032023;28;20478;-62
2022/03/11 02:48:06;;;;;;;7.18;3.58;;;;;;;;;;5047091;28;20009;-62
2022/03/11 02:50:33;;;;;;;5.80;3.63;;;;;;;;;;5031721;28;20037;-61
2022/03/11 02:52:59;;;;;;;7.43;3.45;;;;;;;;;;5031605;28;20021;-63
2022/03/11 02:55:25;;;;;;;7.03;3.88;;;;;;;;;;5031576;28;20045;-63
2022/03/11 02:57:51;;;;;;;6.32;3.70;;;;;;;;;;5031745;28;20045;-62
2022/03/11 03:00:17;;;;;;;6.25;3.42;;;;;;;;;;5031824;28;20022;-61
2022/03/11 03:02:43;;;;;;;6.25;3.28;;;;;;;;;;5031547;28;20478;-64
2022/03/11 03:05:09;;;;;;;6.35;3.70;;;;;;;;;;5031682;28;20028;-62
2022/03/11 03:07:35;;;;;;;6.45;3.25;;;;;;;;;;5031521;28;20427;-61
2022/03/11 03:10:02;;;;;;;6.75;3.25;;;;;;;;;;5031643;28;20030;-63
2022/03/11 03:12:28;;;;;;;7.03;3.70;;;;;;;;;;5031734;28;20029;-66
2022/03/11 03:14:54;;;;;;;6.57;3.72;;;;;;;;;;5035358;28;20018;-62
2022/03/11 03:17:23;;;;;;;6.72;3.50;;;;;;;;;;5035349;28;20468;-63
2022/03/11 03:19:50;;;;;;;7.07;3.95;;;;;;;;;;5050470;28;20052;-62
2022/03/11 03:22:16;;;;;;;7.15;3.50;;;;;;;;;;5050230;28;20024;-63
2022/03/11 03:24:42;;;;;;;6.95;3.60;;;;;;;;;;5035111;28;20037;-63
2022/03/11 03:27:09;;;;;;;6.28;3.58;;;;;;;;;;5050329;28;20248;-62
2022/03/11 03:29:35;;;;;;;5.65;3.10;;;;;;;;;;5035044;28;20631;-64
2022/03/11 03:32:01;;;;;;;7.95;4.13;;;;;;;;;;5034673;28;20037;-62
2022/03/11 03:34:31;;;;;;;6.00;3.63;;;;;;;;;;5034815;28;20096;-62
2022/03/11 03:36:58;;;;;;;7.72;3.63;;;;;;;;;;5034883;28;20493;-63
2022/03/11 03:39:24;;;;;;;6.55;3.30;;;;;;;;;;5034716;28;20021;-62
2022/03/11 03:41:50;;;;;;;7.68;3.85;;;;;;;;;;5034785;28;20495;-62
2022/03/11 03:44:17;;;;;;;6.82;3.63;;;;;;;;;;5034818;28;20109;-64
2022/03/11 03:46:43;;;;;;;6.05;3.50;;;;;;;;;;5034774;28;20084;-62
2022/03/11 03:49:09;;;;;;;9.52;4.38;;;;;;;;;;5034454;28;20026;-62
2022/03/11 03:51:38;;;;;;;8.50;3.90;;;;;;;;;;5034575;28;20033;-61
2022/03/11 03:54:04;;;;;;;5.70;3.15;;;;;;;;;;5034542;28;20078;-62
2022/03/11 03:56:30;;;;;;;7.28;3.75;;;;;;;;;;5034542;28;20029;-61
2022/03/11 03:58:56;;;;;;;5.82;3.60;;;;;;;;;;5034022;28;20032;-60
2022/03/11 04:01:22;;;;;;;8.27;4.45;;;;;;;;;;5034347;28;20029;-60
2022/03/11 04:03:48;;;;;;;7.28;3.60;;;;;;;;;;5034165;28;20014;-61
2022/03/11 04:06:14;;;;;;;6.68;3.72;;;;;;;;;;5034279;28;20022;-62
2022/03/11 04:08:40;;;;;;;6.63;3.78;;;;;;;;;;5033955;28;20030;-62
2022/03/11 04:11:06;;;;;;;6.50;3.40;;;;;;;;;;5033968;28;20029;-62
2022/03/11 04:13:32;;;;;;;8.15;3.80;;;;;;;;;;5034082;28;20110;-63
2022/03/11 04:15:58;;;;;;;7.05;3.60;;;;;;;;;;5034084;28;20025;-60
2022/03/11 04:18:25;;;;;;;8.98;4.18;;;;;;;;;;5033794;28;20029;-60
2022/03/11 04:20:51;;;;;;;7.25;3.97;;;;;;;;;;5033803;28;20372;-61
2022/03/11 04:23:17;;;;;;;7.80;4.22;;;;;;;;;;5048937;28;20025;-60
2022/03/11 04:25:43;;;;;;;9.13;4.65;;;;;;;;;;5048042;28;20013;-60
2022/03/11 04:28:09;;;;;;;7.07;3.95;;;;;;;;;;5048954;28;20068;-61
2022/03/11 04:30:35;;;;;;;9.65;4.00;;;;;;;;;;5033687;28;20023;-60
2022/03/11 04:33:01;;;;;;;10.18;3.65;;;;;;;;;;5033652;28;20079;-60
2022/03/11 04:35:27;;;;;;;6.53;4.00;;;;;;;;;;5033710;28;20444;-61
2022/03/11 04:37:53;;;;;;;7.43;3.58;;;;;;;;;;5033685;28;20109;-61
2022/03/11 04:40:19;;;;;;;6.75;3.88;;;;;;;;;;5033617;28;20021;-61
2022/03/11 04:42:45;;;;;;;6.35;3.50;;;;;;;;;;5033512;28;20100;-61
2022/03/11 04:45:11;;;;;;;7.38;3.70;;;;;;;;;;5033557;28;20017;-61
2022/03/11 04:47:37;;;;;;;6.00;3.55;;;;;;;;;;5033543;28;20068;-63
2022/03/11 04:50:04;;;;;;;6.90;4.10;;;;;;;;;;5033564;28;20029;-61
2022/03/11 04:52:30;;;;;;;7.00;3.90;;;;;;;;;;5033341;28;20061;-62
2022/03/11 04:54:56;;;;;;;6.45;3.92;;;;;;;;;;5033035;28;20049;-62
2022/03/11 04:57:22;;;;;;;8.23;3.67;;;;;;;;;;5034035;28;20103;-61
2022/03/11 04:59:48;;;;;;;7.43;3.92;;;;;;;;;;5033812;28;20017;-63
2022/03/11 05:02:14;;;;;;;7.32;3.97;;;;;;;;;;5033280;28;20022;-61
2022/03/11 05:04:40;;;;;;;6.60;4.10;;;;;;;;;;5032824;28;20028;-64
2022/03/11 05:07:07;;;;;;;6.85;4.40;;;;;;;;;;5032850;28;20495;-61
2022/03/11 05:09:33;;;;;;;6.47;3.60;;;;;;;;;;5033088;28;20448;-62
2022/03/11 05:11:59;;;;;;;7.20;3.80;;;;;;;;;;5032659;28;20396;-61
2022/03/11 05:14:25;;;;;;;11.68;4.65;;;;;;;;;;5033007;28;20017;-61
2022/03/11 05:16:51;;;;;;;7.35;3.75;;;;;;;;;;5033075;28;20033;-60
2022/03/11 05:19:18;;;;;;;7.90;4.15;;;;;;;;;;5032772;28;20025;-63
2022/03/11 05:21:44;;;;;;;7.22;3.95;;;;;;;;;;5032463;28;20022;-60
2022/03/11 05:24:10;;;;;;;6.88;3.60;;;;;;;;;;5032703;28;20029;-61
2022/03/11 05:26:36;;;;;;;7.07;4.13;;;;;;;;;;5032553;28;20069;-62
2022/03/11 05:29:02;;;;;;;7.45;4.00;;;;;;;;;;5032604;28;20025;-61
2022/03/11 05:31:28;;;;;;;7.68;4.55;;;;;;;;;;5050437;28;20465;-64
2022/03/11 05:33:55;;;;;;;7.18;3.90;;;;;;;;;;5052644;28;20028;-64
2022/03/11 05:36:22;;;;;;;7.20;3.70;;;;;;;;;;5052319;28;20025;-64
2022/03/11 05:38:48;;;;;;;7.78;4.20;;;;;;;;;;5052688;28;20021;-61
2022/03/11 05:41:14;;;;;;;8.52;3.83;;;;;;;;;;5052316;28;20528;-61
2022/03/11 05:43:40;;;;;;;10.35;4.10;;;;;;;;;;5052032;28;20024;-63
2022/03/11 05:46:07;;;;;;;7.18;3.53;;;;;;;;;;5052307;28;20025;-64
2022/03/11 05:48:33;;;;;;;10.13;3.78;;;;;;;;;;5052203;28;20056;-61
2022/03/11 05:50:59;;;;;;;7.05;3.85;;;;;;;;;;5050632;28;20392;-61
2022/03/11 05:53:25;;;;;;;15.00;3.95;;;;;;;;;;5051954;28;20055;-62
2022/03/11 05:55:52;;;;;;;12.15;4.32;;;;;;;;;;5051924;28;20021;-60
2022/03/11 05:58:18;;;;;;;9.32;4.53;;;;;;;;;;5051957;28;20027;-61
2022/03/11 06:00:44;;;;;;;10.82;3.60;;;;;;;;;;5051876;28;20079;-61
2022/03/11 06:03:10;;;;;;;10.95;3.88;;;;;;;;;;5051725;28;20553;-63
2022/03/11 06:05:36;;;;;;;9.40;3.28;;;;;;;;;;5052101;28;20078;-63
2022/03/11 06:08:02;;;;;;;10.32;4.15;;;;;;;;;;5050716;28;20021;-64
2022/03/11 06:10:28;;;;;;;10.55;3.42;;;;;;;;;;5052212;28;20029;-64
2022/03/11 06:12:54;;;;;;;7.25;3.65;;;;;;;;;;5050631;28;20034;-66
2022/03/11 06:15:20;;;;;;;11.07;4.20;;;;;;;;;;5051960;28;20021;-64
2022/03/11 06:17:46;;;;;;;12.98;3.72;;;;;;;;;;5051691;28;20021;-62
2022/03/11 06:20:13;;;;;;;10.90;3.88;;;;;;;;;;5051745;28;20027;-62
2022/03/11 06:22:49;;;;;;;16.42;4.15;;;;;;;;;;5052023;28;20025;-64
2022/03/11 06:25:16;;;;;;;12.02;3.75;;;;;;;;;;5051598;28;20037;-61
2022/03/11 06:27:42;;;;;;;9.88;4.00;;;;;;;;;;5051674;28;20438;-61
2022/03/11 06:30:08;;;;;;;15.02;5.10;;;;;;;;;;5069142;28;20360;-62
2022/03/11 06:32:44;;;;;;;11.98;4.10;;;;;;;;;;5071553;28;20037;-61
2022/03/11 06:35:13;;;;;;;6.95;3.78;;;;;;;;;;5071685;28;20024;-62
2022/03/11 06:37:40;;;;;;;9.68;4.20;;;;;;;;;;5071661;28;20108;-64
2022/03/11 06:40:08;;;;;;;6.78;3.50;;;;;;;;;;5052521;28;20410;-62
2022/03/11 06:42:38;;;;;;;14.40;3.88;;;;;;;;;;5051512;28;20071;-61
2022/03/11 06:45:05;;;;;;;13.25;4.22;;;;;;;;;;5042232;28;20048;-64
2022/03/11 06:47:31;;;;;;;10.65;4.25;;;;;;;;;;5031151;28;20022;-64
2022/03/11 06:49:57;;;;;;;16.50;4.80;;;;;;;;;;5034899;28;20026;-63
2022/03/11 06:52:23;;;;;;;12.38;4.13;;;;;;;;;;5035208;28;20384;-64
2022/03/11 06:54:49;;;;;;;11.20;4.18;;;;;;;;;;5033436;28;20076;-65
2022/03/11 06:57:17;;;;;;;8.65;4.32;;;;;;;;;;5038831;28;20071;-64
2022/03/11 06:59:46;;;;;;;12.43;4.57;;;;;;;;;;5055258;28;20021;-64
2022/03/11 07:02:13;;;;;;;10.85;4.63;;;;;;;;;;5055313;28;20074;-62
2022/03/11 07:04:39;;;;;;;9.07;4.70;;;;;;;;;;5055035;28;20025;-64
2022/03/11 07:07:05;;;;;;;12.88;5.35;;;;;;;;;;5054797;28;20049;-64
2022/03/11 07:09:31;;;;;;;16.00;4.63;;;;;;;;;;5055170;28;20017;-65
2022/03/11 07:12:00;;;;;;;13.70;4.97;;;;;;;;;;5054800;28;20052;-64
2022/03/11 07:14:27;;;;;;;11.98;5.28;;;;;;;;;;5055121;28;20491;-65
2022/03/11 07:16:56;;;;;;;10.25;4.90;;;;;;;;;;5055031;28;20555;-64
2022/03/11 07:19:22;;;;;;;10.95;4.80;;;;;;;;;;5054847;28;20476;-64
2022/03/11 07:21:48;;;;;;;9.88;5.00;;;;;;;;;;5054620;28;20029;-66
2022/03/11 07:24:14;;;;;;;8.82;3.97;;;;;;;;;;5054659;28;20021;-64
2022/03/11 07:26:40;;;;;;;8.73;4.50;;;;;;;;;;5054559;28;20487;-64
2022/03/11 07:29:06;;;;;;;10.95;4.65;;;;;;;;;;5054596;28;20017;-64
2022/03/11 07:31:33;;;;;;;9.07;4.00;;;;;;;;;;5054578;28;20033;-63
2022/03/11 07:33:59;;;;;;;10.98;4.65;;;;;;;;;;5054826;28;20090;-64
2022/03/11 07:36:25;;;;;;;9.40;4.32;;;;;;;;;;5054773;28;20446;-64
2022/03/11 07:38:52;;;;;;;8.15;3.88;;;;;;;;;;5054907;28;20095;-62
2022/03/11 07:41:18;;;;;;;8.55;4.35;;;;;;;;;;5054614;28;20021;-64
2022/03/11 07:43:47;;;;;;;8.45;3.95;;;;;;;;;;5054567;28;20142;-65
2022/03/11 07:46:16;;;;;;;8.48;4.70;;;;;;;;;;5054517;28;20033;-64
2022/03/11 07:48:43;;;;;;;9.18;4.43;;;;;;;;;;5054406;28;20021;-64
2022/03/11 07:51:09;;;;;;;8.63;4.25;;;;;;;;;;5054292;28;20473;-63
2022/03/11 07:53:36;;;;;;;10.27;4.07;;;;;;;;;;5054006;28;20384;-64
2022/03/11 07:56:04;;;;;;;8.65;4.15;;;;;;;;;;5054048;28;20025;-62
2022/03/11 07:58:30;;;;;;;7.55;4.05;;;;;;;;;;5053869;28;20017;-64
2022/03/11 08:00:56;;;;;;;7.05;4.28;;;;;;;;;;5052932;28;20028;-65
2022/03/11 08:03:22;;;;;;;8.70;4.28;;;;;;;;;;5053832;28;20130;-65
2022/03/11 08:05:48;;;;;;;9.07;4.63;;;;;;;;;;5054128;28;20064;-65
2022/03/11 08:08:15;;;;;;;8.10;4.53;;;;;;;;;;5054043;28;20021;-64
2022/03/11 08:10:41;;;;;;;8.95;4.10;;;;;;;;;;5052420;28;20029;-65
2022/03/11 08:13:08;;;;;;;10.05;3.47;;;;;;;;;;5053738;28;20025;-64
2022/03/11 08:15:34;;;;;;;6.72;3.40;;;;;;;;;;5054054;28;20025;-63
2022/03/11 08:18:01;;;;;;;7.97;3.72;;;;;;;;;;5053456;28;20029;-62
2022/03/11 08:20:27;;;;;;;12.20;3.60;;;;;;;;;;5053010;28;20515;-62
2022/03/11 08:22:54;;;;;;;6.80;3.88;;;;;;;;;;5053781;28;20452;-63
2022/03/11 08:25:21;;;;;;;7.45;3.30;;;;;;;;;;5053888;28;20472;-62
2022/03/11 08:27:48;;;;;;;10.18;4.30;;;;;;;;;;5053813;28;20021;-62
2022/03/11 08:30:14;;;;;;;7.95;3.72;;;;;;;;;;5052203;28;20071;-63
2022/03/11 08:32:41;;;;;;;10.02;3.92;;;;;;;;;;5053211;28;20044;-63
2022/03/11 08:35:08;;;;;;;6.72;3.70;;;;;;;;;;5053724;28;20155;-62
2022/03/11 08:37:34;;;;;;;9.13;4.22;;;;;;;;;;5053533;28;20029;-63
2022/03/11 08:40:01;;;;;;;11.32;3.65;;;;;;;;;;5053684;28;20091;-63
2022/03/11 08:42:27;;;;;;;13.75;4.22;;;;;;;;;;5053444;28;20021;-68
2022/03/11 08:44:53;;;;;;;63.67;6.35;;;;;;;;;;5053183;28;20074;-67
2022/03/11 08:47:19;;;;;;;38.03;5.05;;;;;;;;;;5052916;28;20375;-65
2022/03/11 08:49:45;;;;;;;26.73;4.28;;;;;;;;;;5053137;28;20083;-64
2022/03/11 08:52:11;;;;;;;19.50;4.07;;;;;;;;;;5053177;28;20029;-67
2022/03/11 08:54:37;;;;;;;20.33;3.97;;;;;;;;;;5048353;28;20052;-65
2022/03/11 08:57:03;;;;;;;13.27;4.32;;;;;;;;;;5040843;28;20043;-65
2022/03/11 08:59:29;;;;;;;18.63;3.35;;;;;;;;;;5036887;28;20476;-68
2022/03/11 09:01:55;;;;;;;14.27;4.00;;;;;;;;;;5053129;28;20080;-62
2022/03/11 09:04:22;;;;;;;13.13;3.88;;;;;;;;;;5053038;28;20021;-60
2022/03/11 09:06:48;;;;;;;10.93;3.55;;;;;;;;;;5053090;28;20025;-62
2022/03/11 09:09:14;;;;;;;11.60;3.28;;;;;;;;;;5052842;28;20021;-63
2022/03/11 09:11:40;;;;;;;12.48;3.20;;;;;;;;;;5067617;28;20075;-69
2022/03/11 09:14:07;;;;;;;15.32;3.90;;;;;;;;;;5052907;28;20017;-64
2022/03/11 09:16:33;;;;;;;8.38;3.15;;;;;;;;;;5052622;28;20013;-71
2022/03/11 09:19:01;;;;;;;9.27;3.15;;;;;;;;;;5045240;28;20033;-64
2022/03/11 09:21:28;;;;;;;11.25;3.58;;;;;;;;;;5044518;28;20036;-63
2022/03/11 09:23:54;;;;;;;10.50;3.05;;;;;;;;;;5051947;28;20488;-64
2022/03/11 09:26:20;;;;;;;8.95;3.20;;;;;;;;;;5051908;28;20078;-70
2022/03/11 09:28:46;;;;;;;9.90;3.65;;;;;;;;;;5051957;28;20100;-60
2022/03/11 09:31:13;;;;;;;8.95;3.10;;;;;;;;;;5035224;28;20026;-64
2022/03/11 09:33:40;;;;;;;12.52;3.67;;;;;;;;;;5045790;28;20025;-62
2022/03/11 09:36:07;;;;;;;10.60;3.17;;;;;;;;;;5042039;28;20029;-69
2022/03/11 09:38:36;;;;;;;8.73;3.45;;;;;;;;;;5051847;28;20017;-64
2022/03/11 09:41:03;;;;;;;7.75;3.13;;;;;;;;;;5050586;28;20017;-61
2022/03/11 09:43:29;;;;;;;10.00;3.22;;;;;;;;;;5036589;28;20061;-71
2022/03/11 09:45:56;;;;;;;9.45;3.08;;;;;;;;;;5043452;28;20104;-62
2022/03/11 09:48:25;;;;;;;8.88;3.08;;;;;;;;;;5043972;28;20021;-70
2022/03/11 09:50:51;;;;;;;8.15;3.42;;;;;;;;;;5035476;28;20029;-61
2022/03/11 09:53:18;;;;;;;8.02;3.05;;;;;;;;;;5048112;28;20030;-64
2022/03/11 09:55:44;;;;;;;6.55;3.13;;;;;;;;;;5038627;28;20124;-60
2022/03/11 09:58:10;;;;;;;8.63;3.20;;;;;;;;;;5041217;28;20039;-64
2022/03/11 10:00:36;;;;;;;5.78;2.58;;;;;;;;;;5046207;28;20025;-61
2022/03/11 10:03:03;;;;;;;6.55;3.10;;;;;;;;;;5051994;28;20021;-61
2022/03/11 10:05:48;;;;;;;6.65;3.30;;;;;;;;;;5052213;28;20025;-61
2022/03/11 10:08:15;;;;;;;7.43;3.00;;;;;;;;;;5051878;28;20055;-61
2022/03/11 10:10:41;;;;;;;5.63;2.60;;;;;;;;;;5051759;28;20021;-69
2022/03/11 10:13:08;;;;;;;7.50;2.65;;;;;;;;;;5052165;28;20120;-67
2022/03/11 10:15:35;;;;;;;7.53;2.45;;;;;;;;;;5052077;28;20025;-69
2022/03/11 10:18:02;;;;;;;5.18;2.65;;;;;;;;;;5051845;28;20031;-70
2022/03/11 10:20:31;;;;;;;5.05;2.70;;;;;;;;;;5052161;28;20021;-63
2022/03/11 10:22:57;;;;;;;4.65;2.42;;;;;;;;;;5053092;28;20083;-68
2022/03/11 10:25:25;;;;;;;6.68;2.65;;;;;;;;;;5071390;28;20033;-69
2022/03/11 10:27:57;;;;;;;6.65;2.70;;;;;;;;;;5055918;28;20047;-64
2022/03/11 10:30:23;;;;;;;5.45;2.80;;;;;;;;;;5056042;28;20021;-63
2022/03/11 10:32:53;;;;;;;5.82;3.00;;;;;;;;;;5055547;28;20080;-67
2022/03/11 10:35:30;;;;;;;6.10;2.72;;;;;;;;;;5071297;28;20033;-67
2022/03/11 10:38:00;;;;;;;6.70;2.58;;;;;;;;;;5070743;28;20029;-68
2022/03/11 10:40:31;;;;;;;10.02;2.70;;;;;;;;;;5055758;28;20023;-64
2022/03/11 10:43:10;;;;;;;9.63;2.65;;;;;;;;;;5055770;28;20021;-66
2022/03/11 10:45:55;;;;;;;5.07;2.40;;;;;;;;;;5055468;28;20044;-63
2022/03/11 10:48:41;;;;;;;5.15;2.38;;;;;;;;;;5055510;28;20424;-70
2022/03/11 10:51:10;;;;;;;9.18;2.63;;;;;;;;;;5055184;28;20033;-68
2022/03/11 10:53:39;;;;;;;6.07;2.72;;;;;;;;;;5055400;28;20452;-61
2022/03/11 10:56:09;;;;;;;3.83;2.08;;;;;;;;;;5055467;28;20104;-71
2022/03/11 10:58:36;;;;;;;5.97;2.80;;;;;;;;;;5055386;28;20099;-66
2022/03/11 11:01:02;;;;;;;5.30;2.60;;;;;;;;;;5070432;28;20029;-71
2022/03/11 11:03:29;;;;;;;6.10;2.85;;;;;;;;;;5054994;28;20036;-70
2022/03/11 11:05:55;;;;;;;5.38;2.70;;;;;;;;;;5054944;28;20044;-61
2022/03/11 11:08:22;;;;;;;6.00;2.50;;;;;;;;;;5054977;28;20094;-66
2022/03/11 11:10:48;;;;;;;6.45;2.90;;;;;;;;;;5054830;28;20661;-68
2022/03/11 11:13:15;;;;;;;5.53;2.65;;;;;;;;;;5070368;28;20121;-64
2022/03/11 11:15:41;;;;;;;6.00;2.92;;;;;;;;;;5055197;28;20426;-61
2022/03/11 11:18:14;;;;;;;12.82;4.15;;;;;;;;;;5055136;28;20025;-65
2022/03/11 11:20:50;;;;;;;8.63;2.70;;;;;;;;;;5054980;28;20036;-66
2022/03/11 11:23:16;;;;;;;5.45;2.67;;;;;;;;;;5054832;28;20025;-62
2022/03/11 11:25:43;;;;;;;6.25;2.35;;;;;;;;;;5055062;28;20046;-69
2022/03/11 11:28:16;;;;;;;9.30;2.75;;;;;;;;;;5055129;28;20037;-65
2022/03/11 11:30:42;;;;;;;5.28;2.50;;;;;;;;;;5054836;28;20021;-67
2022/03/11 11:33:10;;;;;;;10.93;3.42;;;;;;;;;;5054769;28;20033;-65
2022/03/11 11:35:43;;;;;;;8.00;2.40;;;;;;;;;;5053277;28;20017;-67
2022/03/11 11:38:27;;;;;;;5.05;2.67;;;;;;;;;;5053513;28;20021;-66
2022/03/11 11:40:54;;;;;;;6.60;2.30;;;;;;;;;;5053559;28;20350;-65
2022/03/11 11:43:31;;;;;;;5.03;2.38;;;;;;;;;;5053617;28;20118;-67
2022/03/11 11:46:03;;;;;;;6.10;2.53;;;;;;;;;;5054123;28;20464;-68
2022/03/11 11:48:32;;;;;;;7.18;2.63;;;;;;;;;;5054294;28;20033;-65
2022/03/11 11:51:03;;;;;;;9.30;2.92;;;;;;;;;;5069478;28;20028;-62
2022/03/11 11:53:37;;;;;;;8.55;2.80;;;;;;;;;;5054237;28;20053;-62
2022/03/11 11:56:22;;;;;;;6.07;2.70;;;;;;;;;;5054735;28;20163;-63
2022/03/11 11:58:49;;;;;;;7.13;2.40;;;;;;;;;;5053378;28;20542;-61
2022/03/11 12:01:35;;;;;;;5.93;2.25;;;;;;;;;;5034367;28;20014;-64
2022/03/11 12:04:20;;;;;;;4.97;2.53;;;;;;;;;;5034266;28;20057;-61
2022/03/11 12:06:55;;;;;;;5.30;2.03;;;;;;;;;;5034245;28;20600;-65
2022/03/11 12:12:06;;;;;;;6.68;2.30;;;;;;;;;;5034017;28;20033;-66
2022/03/11 12:14:33;;;;;;;5.18;2.30;;;;;;;;;;5033819;28;20024;-67
2022/03/11 12:17:06;;;;;;;5.75;2.50;;;;;;;;;;5033873;28;20026;-63
2022/03/11 12:19:50;;;;;;;4.53;1.95;;;;;;;;;;5045062;28;20096;-60
2022/03/11 12:22:23;;;;;;;4.60;2.22;;;;;;;;;;5065521;28;20040;-64
2022/03/11 12:25:06;;;;;;;3.78;1.88;;;;;;;;;;5053007;28;20791;-61
2022/03/11 12:27:51;;;;;;;4.60;2.25;;;;;;;;;;5052479;28;20035;-67
2022/03/11 12:30:17;;;;;;;4.68;2.30;;;;;;;;;;5046439;28;20036;-65
2022/03/11 12:32:43;;;;;;;5.55;2.70;;;;;;;;;;5052722;28;20079;-63
2022/03/11 12:35:12;;;;;;;6.13;2.47;;;;;;;;;;5044536;28;20361;-68
2022/03/11 12:37:38;;;;;;;5.10;2.30;;;;;;;;;;5043750;28;20037;-63
2022/03/11 12:40:09;;;;;;;8.73;2.40;;;;;;;;;;5041003;28;20057;-66
2022/03/11 12:42:41;;;;;;;6.50;2.28;;;;;;;;;;5044926;28;20033;-67
2022/03/11 12:45:08;;;;;;;6.63;2.40;;;;;;;;;;5043726;28;20029;-65
2022/03/11 12:47:38;;;;;;;8.70;2.53;;;;;;;;;;5043238;28;20044;-66
2022/03/11 12:50:05;;;;;;;6.07;2.63;;;;;;;;;;5051302;28;20036;-65
2022/03/11 12:52:38;;;;;;;6.95;2.17;;;;;;;;;;5035743;28;20508;-65
2022/03/11 12:55:30;;;;;;;13.40;3.13;;;;;;;;;;5033940;28;20045;-63
2022/03/11 12:57:56;;;;;;;5.25;2.15;;;;;;;;;;5044156;28;20088;-66
2022/03/11 13:00:23;;;;;;;14.32;2.42;;;;;;;;;;5037691;28;20488;-66
2022/03/11 13:02:50;;;;;;;5.82;1.75;;;;;;;;;;5048748;28;20033;-65
2022/03/11 13:05:26;;;;;;;7.53;2.35;;;;;;;;;;5046194;28;20092;-64
2022/03/11 13:07:53;;;;;;;8.30;2.30;;;;;;;;;;5051054;28;20025;-63
2022/03/11 13:10:21;;;;;;;9.02;2.08;;;;;;;;;;5051325;28;20772;-64
2022/03/11 13:12:48;;;;;;;9.68;3.05;;;;;;;;;;5050491;28;20560;-64
2022/03/11 13:15:25;;;;;;;8.82;2.35;;;;;;;;;;5033512;28;20032;-61
2022/03/11 13:17:53;;;;;;;9.50;2.10;;;;;;;;;;5046209;28;20048;-62
2022/03/11 13:20:31;;;;;;;11.00;2.47;;;;;;;;;;5050053;28;20044;-64
2022/03/11 13:22:58;;;;;;;6.20;1.92;;;;;;;;;;5050632;28;20029;-65
2022/03/11 13:25:28;;;;;;;5.32;2.33;;;;;;;;;;5048594;28;20025;-66
2022/03/11 13:27:55;;;;;;;6.65;2.33;;;;;;;;;;5051802;28;20060;-65
2022/03/11 13:30:34;;;;;;;6.35;2.15;;;;;;;;;;5038923;28;20057;-66
2022/03/11 13:33:20;;;;;;;6.47;2.00;;;;;;;;;;5047732;28;20061;-65
2022/03/11 13:35:47;;;;;;;8.18;1.83;;;;;;;;;;5039017;28;20103;-66
2022/03/11 13:38:32;;;;;;;9.25;2.63;;;;;;;;;;5040511;28;20135;-65
2022/03/11 13:40:58;;;;;;;6.03;2.33;;;;;;;;;;5048055;28;20025;-66
2022/03/11 13:43:24;;;;;;;7.88;2.00;;;;;;;;;;5035647;28;20139;-67
2022/03/11 13:45:53;;;;;;;4.15;1.70;;;;;;;;;;5043996;28;20026;-66
2022/03/11 13:48:26;;;;;;;9.27;2.63;;;;;;;;;;5043102;28;20029;-67
2022/03/11 13:50:52;;;;;;;;;;;;;;;;;;5044070;28;20059;-68
2022/03/11 13:53:26;;;;;;;6.45;2.00;;;;;;;;;;5051379;28;19952;-66
2022/03/11 13:55:52;;;;;;;9.15;2.08;;;;;;;;;;5043674;28;20037;-66
2022/03/11 13:58:20;;;;;;;4.40;1.80;;;;;;;;;;5042825;28;20488;-67
2022/03/11 14:00:50;;;;;;;6.43;2.10;;;;;;;;;;5035788;28;20083;-68
2022/03/11 14:03:17;;;;;;;5.50;1.88;;;;;;;;;;5047701;28;20018;-68
2022/03/11 14:05:44;;;;;;;4.78;2.28;;;;;;;;;;5037892;28;20028;-65
2022/03/11 14:08:12;;;;;;;5.82;2.17;;;;;;;;;;5040588;28;20024;-65
2022/03/11 14:10:43;;;;;;;5.03;1.92;;;;;;;;;;5045411;28;20021;-63
2022/03/11 14:13:16;;;;;;;5.38;2.20;;;;;;;;;;5034721;28;20025;-62
2022/03/11 14:15:43;;;;;;;;;;;;;;;;;;5052061;28;20044;-65
2022/03/11 14:18:11;;;;;;;3.95;2.10;;;;;;;;;;5044127;28;19948;-65
2022/03/11 14:20:38;;;;;;;5.13;1.73;;;;;;;;;;5051433;28;20025;-63
2022/03/11 14:23:04;;;;;;;5.82;2.20;;;;;;;;;;5048577;28;20056;-67
2022/03/11 14:25:31;;;;;;;5.07;1.80;;;;;;;;;;5036299;28;20014;-63
2022/03/11 14:27:57;;;;;;;5.28;1.90;;;;;;;;;;5051171;28;20104;-66
2022/03/11 14:30:23;;;;;;;8.75;2.47;;;;;;;;;;5051101;28;20018;-68
2022/03/11 14:32:53;;;;;;;4.70;1.63;;;;;;;;;;5051054;28;20075;-65
2022/03/11 14:35:19;;;;;;;9.52;2.10;;;;;;;;;;5032945;28;20017;-65
2022/03/11 14:37:45;;;;;;;8.10;2.20;;;;;;;;;;5044046;28;20377;-63
2022/03/11 14:40:11;;;;;;;4.43;2.10;;;;;;;;;;5041267;28;20025;-61
2022/03/11 14:42:38;;;;;;;5.53;1.95;;;;;;;;;;5036837;28;20025;-61
2022/03/11 14:45:08;;;;;;;4.00;1.65;;;;;;;;;;5047344;28;20032;-65
2022/03/11 14:47:37;;;;;;;6.20;2.17;;;;;;;;;;5048646;28;20024;-60